Time;durP1;ratioP1;P1;durP2;ratioP2;P2;SDS_P1;SDS_P2;PMS_P1;PMS_P2;Temp;Humidity;BMP_temperature;BMP_pressure;BME280_temperature;BME280_humidity;BME280_pressure;Samples;Min_cycle;Max_cycle;Signal;HPM_P1;HPM_P2
2022/09/26 00:01:15;;;;;;;3.30;1.90;;;9.30;99.90;;;;;;5097639;28;20178;-92
2022/09/26 00:03:45;;;;;;;2.00;1.50;;;9.30;99.90;;;;;;5097775;28;20190;-92
2022/09/26 00:06:12;;;;;;;2.10;1.50;;;9.30;99.90;;;;;;5098340;28;20198;-92
2022/09/26 00:08:38;;;;;;;7.20;1.80;;;9.30;99.90;;;;;;5097419;28;20209;-92
2022/09/26 00:11:07;;;;;;;2.90;1.23;;;9.30;99.90;;;;;;5096236;28;20170;-92
2022/09/26 00:13:34;;;;;;;2.83;1.70;;;9.30;99.90;;;;;;5097081;28;20185;-92
2022/09/26 00:16:00;;;;;;;2.10;1.60;;;9.30;99.90;;;;;;5096040;28;20257;-93
2022/09/26 00:18:25;;;;;;;2.50;1.37;;;9.30;99.90;;;;;;5097048;28;20179;-92
2022/09/26 00:20:51;;;;;;;2.90;1.67;;;9.30;99.90;;;;;;5094956;28;20671;-92
2022/09/26 00:23:18;;;;;;;3.13;1.87;;;9.30;99.90;;;;;;5095981;28;20183;-92
2022/09/26 00:25:48;;;;;;;3.70;1.50;;;9.40;99.90;;;;;;5097035;28;20281;-92
2022/09/26 00:28:14;;;;;;;6.23;1.97;;;9.40;99.90;;;;;;5097987;28;20194;-92
2022/09/26 00:30:43;;;;;;;6.20;1.93;;;9.40;99.90;;;;;;5096890;28;20170;-92
2022/09/26 00:33:09;;;;;;;2.77;1.97;;;9.50;99.90;;;;;;5097485;28;20166;-92
2022/09/26 00:35:35;;;;;;;5.87;2.00;;;9.60;99.90;;;;;;5094175;28;20278;-92
2022/09/26 00:38:01;;;;;;;3.37;1.83;;;9.50;99.90;;;;;;5095033;28;20613;-92
2022/09/26 00:40:27;;;;;;;2.93;1.70;;;9.60;99.90;;;;;;5097282;28;20178;-92
2022/09/26 00:42:53;;;;;;;3.10;1.60;;;9.50;99.90;;;;;;5097030;28;20174;-92
2022/09/26 00:45:20;;;;;;;4.17;1.80;;;9.60;99.90;;;;;;5097225;28;20233;-92
2022/09/26 00:47:51;;;;;;;3.37;1.63;;;9.60;99.90;;;;;;5096866;28;20255;-92
2022/09/26 00:50:26;;;;;;;2.73;1.53;;;9.60;99.90;;;;;;5096493;28;20170;-92
2022/09/26 00:53:21;;;;;;;4.90;1.87;;;9.70;99.90;;;;;;5094250;28;20184;-92
2022/09/26 00:55:50;;;;;;;2.67;1.57;;;9.70;99.90;;;;;;5088635;28;20272;-92
2022/09/26 00:58:30;;;;;;;3.77;1.70;;;9.70;99.90;;;;;;5101816;28;20174;-92
2022/09/26 01:00:57;;;;;;;6.43;1.90;;;9.70;99.90;;;;;;5099589;28;20170;-92
2022/09/26 01:03:24;;;;;;;4.83;1.80;;;9.70;99.90;;;;;;5098454;28;20201;-92
2022/09/26 01:05:50;;;;;;;2.37;1.53;;;9.70;99.90;;;;;;5096085;28;20190;-92
2022/09/26 01:08:20;;;;;;;5.43;1.60;;;9.70;99.90;;;;;;5093971;28;20567;-92
2022/09/26 01:10:46;;;;;;;6.00;1.80;;;9.70;99.90;;;;;;5096657;28;20174;-92
2022/09/26 01:13:12;;;;;;;4.70;1.80;;;9.80;99.90;;;;;;5097019;28;20173;-91
2022/09/26 01:15:37;;;;;;;4.60;2.03;;;9.80;99.90;;;;;;5097297;28;20182;-92
2022/09/26 01:18:06;;;;;;;5.43;1.90;;;9.80;99.90;;;;;;5096888;28;20256;-92
2022/09/26 01:20:55;;;;;;;7.83;1.90;;;10.00;99.90;;;;;;5097491;28;20196;-92
2022/09/26 01:23:31;;;;;;;6.10;2.27;;;9.80;99.90;;;;;;5096737;28;20189;-92
2022/09/26 01:30:00;;;;;;;3.10;1.63;;;9.90;99.90;;;;;;5097260;28;20710;-92
2022/09/26 01:33:00;;;;;;;3.47;1.83;;;9.90;99.90;;;;;;5018428;28;20180;-92
2022/09/26 01:35:40;;;;;;;6.63;1.90;;;9.90;99.90;;;;;;5093691;28;20698;-92
2022/09/26 01:38:14;;;;;;;5.20;1.93;;;9.90;99.90;;;;;;5097807;28;20182;-92
2022/09/26 01:40:45;;;;;;;5.87;2.10;;;9.90;99.90;;;;;;5097884;28;20291;-92
2022/09/26 01:43:46;;;;;;;4.30;2.37;;;10.00;99.90;;;;;;5096572;28;20197;-93
2022/09/26 01:46:34;;;;;;;6.47;3.17;;;10.00;99.90;;;;;;5091616;28;20210;-92
2022/09/26 01:49:11;;;;;;;5.63;3.63;;;10.10;99.90;;;;;;5095587;28;20690;-92
2022/09/26 01:51:52;;;;;;;6.73;4.27;;;10.10;99.90;;;;;;5093129;28;20201;-92
2022/09/26 01:54:24;;;;;;;5.17;4.47;;;10.20;99.90;;;;;;5096202;28;20174;-92
2022/09/26 01:56:51;;;;;;;8.90;4.67;;;10.30;99.90;;;;;;5097073;28;20624;-92
2022/09/26 01:59:27;;;;;;;4.90;4.20;;;10.30;99.90;;;;;;5096090;28;20188;-92
2022/09/26 02:01:56;;;;;;;10.87;4.93;;;10.30;99.90;;;;;;5095319;28;20236;-92
2022/09/26 02:04:29;;;;;;;6.37;4.53;;;10.40;99.90;;;;;;5096853;28;20182;-92
2022/09/26 02:07:01;;;;;;;6.70;4.00;;;10.40;99.90;;;;;;5098174;28;20219;-92
2022/09/26 02:09:42;;;;;;;7.60;4.07;;;10.50;99.90;;;;;;5096627;28;20232;-92
2022/09/26 02:12:15;;;;;;;5.73;3.97;;;10.60;99.90;;;;;;5096463;28;20273;-92
2022/09/26 02:14:43;;;;;;;10.33;4.50;;;10.60;99.90;;;;;;5096793;28;20193;-92
2022/09/26 02:17:17;;;;;;;7.77;4.33;;;10.60;99.90;;;;;;5098138;28;20254;-92
2022/09/26 02:19:46;;;;;;;7.70;5.13;;;10.80;99.90;;;;;;5097463;28;20200;-92
2022/09/26 02:22:11;;;;;;;8.93;4.60;;;10.70;99.90;;;;;;5107194;28;20182;-91
2022/09/26 02:24:37;;;;;;;6.17;4.70;;;10.70;99.90;;;;;;5112043;28;20299;-91
2022/09/26 02:27:03;;;;;;;6.43;4.30;;;10.70;99.90;;;;;;5113651;28;20178;-91
2022/09/26 02:29:28;;;;;;;6.40;4.83;;;10.70;99.90;;;;;;5111632;28;20213;-91
2022/09/26 02:32:04;;;;;;;8.43;4.97;;;10.80;99.90;;;;;;5104200;28;20656;-92
2022/09/26 02:34:30;;;;;;;7.97;4.63;;;10.80;99.90;;;;;;5098080;28;20189;-91
2022/09/26 02:36:58;;;;;;;8.30;4.77;;;10.80;99.90;;;;;;5095311;28;20567;-92
2022/09/26 02:39:24;;;;;;;7.60;5.57;;;10.90;99.90;;;;;;5096173;28;20245;-92
2022/09/26 02:42:14;;;;;;;6.33;4.93;;;10.90;99.90;;;;;;5094103;28;20713;-92
2022/09/26 02:45:09;;;;;;;7.43;5.03;;;10.90;99.90;;;;;;5100247;28;20196;-92
2022/09/26 02:47:49;;;;;;;5.93;4.53;;;10.90;99.90;;;;;;5094910;28;20628;-93
2022/09/26 02:50:46;;;;;;;9.07;4.83;;;10.90;99.90;;;;;;5097582;28;20154;-92
2022/09/26 02:53:39;;;;;;;6.07;4.57;;;11.00;99.90;;;;;;5095423;28;20178;-92
2022/09/26 02:56:37;;;;;;;9.37;5.07;;;10.90;99.90;;;;;;5095314;28;20202;-92
2022/09/26 02:59:20;;;;;;;7.03;5.20;;;11.00;99.90;;;;;;5057141;28;20201;-92
2022/09/26 03:01:57;;;;;;;8.17;4.93;;;11.00;99.90;;;;;;5095525;28;20253;-92
2022/09/26 03:04:42;;;;;;;9.43;4.90;;;11.00;99.90;;;;;;5094991;28;20159;-92
2022/09/26 03:07:13;;;;;;;6.17;4.60;;;11.00;99.90;;;;;;5114583;28;20211;-92
2022/09/26 03:09:41;;;;;;;8.23;4.87;;;11.00;99.90;;;;;;5098367;28;20303;-92
2022/09/26 03:12:08;;;;;;;8.20;5.30;;;11.00;99.90;;;;;;5096575;28;20178;-92
2022/09/26 03:14:38;;;;;;;6.60;5.20;;;11.10;99.90;;;;;;5108731;28;20238;-91
2022/09/26 03:17:04;;;;;;;10.20;5.67;;;11.20;99.90;;;;;;5121274;27;20309;-90
2022/09/26 03:19:40;;;;;;;7.50;5.70;;;11.10;99.90;;;;;;5120809;27;20182;-92
2022/09/26 03:22:06;;;;;;;10.67;6.73;;;11.00;99.90;;;;;;5120141;27;20162;-92
2022/09/26 03:24:35;;;;;;;7.37;5.60;;;11.10;99.90;;;;;;5105271;28;20190;-92
2022/09/26 03:27:03;;;;;;;8.37;5.57;;;11.10;99.90;;;;;;5099404;28;20174;-92
2022/09/26 03:29:31;;;;;;;7.10;6.40;;;11.00;99.90;;;;;;5102438;28;20296;-92
2022/09/26 03:31:56;;;;;;;9.47;6.17;;;11.10;99.90;;;;;;5098008;28;20198;-92
2022/09/26 03:34:22;;;;;;;9.57;6.30;;;11.20;99.90;;;;;;5097731;28;20667;-92
2022/09/26 03:36:48;;;;;;;9.80;6.23;;;11.20;99.90;;;;;;5098623;28;20331;-92
2022/09/26 03:39:13;;;;;;;15.77;6.67;;;11.20;99.90;;;;;;5097879;28;20171;-92
2022/09/26 03:41:41;;;;;;;8.33;6.57;;;11.20;99.90;;;;;;5100733;28;20179;-92
2022/09/26 03:44:07;;;;;;;16.00;5.97;;;11.30;99.90;;;;;;5103471;28;20179;-92
2022/09/26 03:46:32;;;;;;;8.67;6.43;;;11.20;99.90;;;;;;5099657;28;20194;-92
2022/09/26 03:48:58;;;;;;;9.97;6.87;;;11.20;99.90;;;;;;5098314;28;20209;-92
2022/09/26 03:51:23;;;;;;;6.57;5.57;;;11.20;99.90;;;;;;5098458;28;20167;-91
2022/09/26 03:53:49;;;;;;;10.80;5.83;;;11.20;99.90;;;;;;5098302;28;20194;-92
2022/09/26 03:56:17;;;;;;;9.70;5.90;;;11.20;99.90;;;;;;5097444;28;20193;-92
2022/09/26 03:58:44;;;;;;;10.80;6.33;;;11.20;99.90;;;;;;5098475;28;20181;-92
2022/09/26 04:01:19;;;;;;;8.77;5.53;;;11.20;99.90;;;;;;5097872;28;20182;-92
2022/09/26 04:03:46;;;;;;;6.63;5.23;;;11.30;99.90;;;;;;5097389;28;20272;-92
2022/09/26 04:06:12;;;;;;;8.33;5.50;;;11.20;99.90;;;;;;5096395;28;20265;-92
2022/09/26 04:08:39;;;;;;;8.57;5.90;;;11.20;99.90;;;;;;5098089;28;20227;-92
2022/09/26 04:11:07;;;;;;;11.63;5.57;;;11.20;99.90;;;;;;5098834;28;20198;-92
2022/09/26 04:13:33;;;;;;;8.87;5.70;;;11.20;99.90;;;;;;5098088;28;20183;-92
2022/09/26 04:16:00;;;;;;;7.47;4.97;;;11.20;99.90;;;;;;5097156;28;20194;-92
2022/09/26 04:18:27;;;;;;;5.23;4.73;;;11.20;99.90;;;;;;5098036;28;20178;-92
2022/09/26 04:20:57;;;;;;;8.43;5.27;;;11.30;99.90;;;;;;5096875;28;20265;-92
2022/09/26 04:23:27;;;;;;;7.23;5.37;;;11.20;99.90;;;;;;5097962;28;20181;-92
2022/09/26 04:25:52;;;;;;;6.33;5.20;;;11.30;99.90;;;;;;5097441;28;20247;-92
2022/09/26 04:28:18;;;;;;;7.47;5.33;;;11.20;99.90;;;;;;5095970;28;20202;-92
2022/09/26 04:30:43;;;;;;;9.10;5.80;;;11.20;99.90;;;;;;5096094;28;20257;-92
2022/09/26 04:33:09;;;;;;;9.33;5.67;;;11.50;99.90;;;;;;5093884;28;20231;-92
2022/09/26 04:35:35;;;;;;;10.93;5.57;;;11.10;99.90;;;;;;5093499;28;20202;-92
2022/09/26 04:38:00;;;;;;;7.30;4.93;;;11.20;99.90;;;;;;5085523;28;20171;-92
2022/09/26 04:40:26;;;;;;;8.23;5.37;;;11.20;99.90;;;;;;5092026;28;20237;-92
2022/09/26 04:42:52;;;;;;;12.57;5.17;;;11.20;99.90;;;;;;5092009;28;20190;-92
2022/09/26 04:45:17;;;;;;;9.33;5.60;;;11.20;99.90;;;;;;5081646;28;20229;-92
2022/09/26 04:47:43;;;;;;;8.73;5.07;;;11.20;99.90;;;;;;5085734;28;20240;-91
2022/09/26 04:50:09;;;;;;;10.67;5.70;;;11.20;99.90;;;;;;5085265;28;20640;-92
2022/09/26 04:52:34;;;;;;;10.73;5.47;;;11.20;99.90;;;;;;5089718;28;20190;-91
2022/09/26 04:55:00;;;;;;;8.43;4.63;;;11.30;99.90;;;;;;5076095;28;20202;-91
2022/09/26 04:57:26;;;;;;;7.30;4.77;;;11.40;99.90;;;;;;5079255;28;20243;-91
2022/09/26 04:59:52;;;;;;;8.30;4.53;;;11.30;99.90;;;;;;5076714;28;20179;-92
2022/09/26 05:02:18;;;;;;;7.20;5.03;;;11.30;99.90;;;;;;5083233;28;20185;-92
2022/09/26 05:04:46;;;;;;;7.07;4.57;;;11.30;99.90;;;;;;5095646;28;20197;-92
2022/09/26 05:07:14;;;;;;;10.57;5.17;;;11.20;99.90;;;;;;5094676;28;20177;-92
2022/09/26 05:09:41;;;;;;;7.13;4.97;;;11.20;99.90;;;;;;5095120;28;20591;-91
2022/09/26 05:12:07;;;;;;;5.30;4.67;;;11.20;99.90;;;;;;5093003;28;20596;-92
2022/09/26 05:14:34;;;;;;;12.03;4.90;;;11.20;99.90;;;;;;5094943;28;20171;-93
2022/09/26 05:17:01;;;;;;;8.20;4.27;;;11.20;99.90;;;;;;5095607;28;20640;-92
2022/09/26 05:19:27;;;;;;;7.93;4.50;;;11.20;99.90;;;;;;5098686;28;20632;-92
2022/09/26 05:21:53;;;;;;;10.40;4.33;;;11.20;99.90;;;;;;5098382;28;20178;-92
2022/09/26 05:27:04;;;;;;;6.70;3.70;;;11.20;99.90;;;;;;5098613;28;20161;-92
2022/09/26 05:29:30;;;;;;;13.83;4.27;;;11.10;99.90;;;;;;5097297;28;20206;-92
2022/09/26 05:31:56;;;;;;;7.47;4.13;;;11.20;99.90;;;;;;5082303;28;20180;-93
2022/09/26 05:34:25;;;;;;;5.83;3.53;;;11.20;99.90;;;;;;5096547;28;20585;-92
2022/09/26 05:36:51;;;;;;;5.53;3.53;;;11.20;99.90;;;;;;5097538;28;20170;-91
2022/09/26 05:42:04;;;;;;;7.67;4.13;;;11.20;99.90;;;;;;5095345;28;20185;-92
2022/09/26 05:44:30;;;;;;;7.90;3.50;;;11.20;99.90;;;;;;5095586;28;20269;-92
2022/09/26 05:46:56;;;;;;;5.00;2.97;;;11.30;99.90;;;;;;5095060;28;20637;-93
2022/09/26 05:49:22;;;;;;;8.00;3.47;;;11.10;99.90;;;;;;5095822;28;20194;-92
2022/09/26 05:51:47;;;;;;;9.17;3.77;;;11.30;99.90;;;;;;5097172;28;20178;-93
2022/09/26 05:54:13;;;;;;;6.00;3.27;;;11.30;99.90;;;;;;5096141;28;20166;-92
2022/09/26 05:56:39;;;;;;;5.70;2.77;;;11.30;99.90;;;;;;5100105;28;20599;-93
2022/09/26 05:59:05;;;;;;;5.70;3.70;;;11.30;99.90;;;;;;5097823;28;20181;-93
2022/09/26 06:01:32;;;;;;;5.03;2.87;;;11.30;99.90;;;;;;5096962;28;20170;-92
2022/09/26 06:03:58;;;;;;;6.03;2.97;;;11.50;99.90;;;;;;5099358;28;20174;-92
2022/09/26 06:06:23;;;;;;;8.87;2.80;;;11.50;99.90;;;;;;5099208;28;20613;-92
2022/09/26 06:08:49;;;;;;;4.23;2.40;;;11.40;99.90;;;;;;5096208;28;20638;-93
2022/09/26 06:11:17;;;;;;;11.43;3.00;;;11.30;99.90;;;;;;5079845;28;20202;-92
2022/09/26 06:13:47;;;;;;;6.77;2.40;;;11.40;99.90;;;;;;5088146;28;20257;-93
2022/09/26 06:16:17;;;;;;;6.27;2.77;;;11.30;99.90;;;;;;5095185;28;20672;-92
2022/09/26 06:18:43;;;;;;;4.57;2.63;;;11.30;99.90;;;;;;5094300;28;20186;-92
2022/09/26 06:21:11;;;;;;;6.50;2.70;;;11.40;99.90;;;;;;5095731;28;20178;-92
2022/09/26 06:23:37;;;;;;;3.50;2.20;;;11.50;99.90;;;;;;5099734;28;20640;-93
2022/09/26 06:26:06;;;;;;;7.03;2.57;;;11.60;99.90;;;;;;5099348;28;20244;-93
2022/09/26 06:28:33;;;;;;;3.40;2.33;;;11.50;99.90;;;;;;5088537;28;20206;-92
2022/09/26 06:30:58;;;;;;;4.60;2.37;;;11.50;99.90;;;;;;5098492;28;20683;-93
2022/09/26 06:33:24;;;;;;;4.17;2.17;;;11.50;99.90;;;;;;5098643;28;20187;-93
2022/09/26 06:36:00;;;;;;;5.87;2.40;;;11.50;99.90;;;;;;5093042;28;20210;-93
2022/09/26 06:38:27;;;;;;;6.47;2.17;;;11.60;99.90;;;;;;5101294;28;20189;-93
2022/09/26 06:40:53;;;;;;;3.63;2.10;;;11.60;99.90;;;;;;5084118;28;20246;-93
2022/09/26 06:43:19;;;;;;;6.00;2.23;;;11.70;99.90;;;;;;5095896;28;20222;-93
2022/09/26 06:45:47;;;;;;;3.73;2.30;;;11.70;99.90;;;;;;5098883;28;20206;-93
2022/09/26 06:48:13;;;;;;;3.33;1.90;;;11.70;99.90;;;;;;5083670;28;20225;-93
2022/09/26 06:50:39;;;;;;;4.83;2.40;;;11.70;99.90;;;;;;5084846;28;20605;-93
2022/09/26 06:53:05;;;;;;;5.13;2.43;;;11.70;99.90;;;;;;5103655;28;20216;-93
2022/09/26 06:55:31;;;;;;;4.00;2.03;;;11.70;99.90;;;;;;5107613;28;20193;-93
2022/09/26 06:57:57;;;;;;;7.73;2.37;;;11.80;99.90;;;;;;5108424;28;20184;-93
2022/09/26 07:00:23;;;;;;;4.70;2.07;;;11.80;99.90;;;;;;5105993;28;20200;-94
2022/09/26 07:02:53;;;;;;;4.50;2.97;;;11.80;99.90;;;;;;5104881;28;20182;-93
2022/09/26 07:05:20;;;;;;;3.47;2.30;;;11.80;99.90;;;;;;5085151;28;20233;-93
2022/09/26 07:07:47;;;;;;;3.03;2.47;;;11.80;99.90;;;;;;5102366;28;20192;-93
2022/09/26 07:10:15;;;;;;;4.47;2.30;;;11.80;99.90;;;;;;5102494;28;20583;-93
2022/09/26 07:12:43;;;;;;;3.17;2.70;;;11.80;99.90;;;;;;5099687;28;20265;-93
2022/09/26 07:15:13;;;;;;;6.13;2.50;;;11.80;99.90;;;;;;5095975;28;20201;-93
2022/09/26 07:17:40;;;;;;;5.00;3.10;;;11.80;99.90;;;;;;5101539;28;20274;-93
2022/09/26 07:20:09;;;;;;;8.00;2.77;;;11.70;99.90;;;;;;5088225;28;20598;-93
2022/09/26 07:22:35;;;;;;;7.20;2.70;;;11.70;99.90;;;;;;5099855;28;20182;-93
2022/09/26 07:25:01;;;;;;;3.03;2.63;;;11.90;99.90;;;;;;5097960;28;20221;-93
2022/09/26 07:27:26;;;;;;;4.73;2.63;;;11.70;99.90;;;;;;5083154;28;20652;-92
2022/09/26 07:29:52;;;;;;;6.23;2.43;;;11.70;99.90;;;;;;5101707;28;20206;-93
2022/09/26 07:32:17;;;;;;;7.33;2.40;;;11.70;99.90;;;;;;5101817;28;20234;-93
2022/09/26 07:34:43;;;;;;;6.00;2.83;;;11.70;99.90;;;;;;5102213;28;20174;-93
2022/09/26 07:37:09;;;;;;;8.20;2.63;;;11.90;99.90;;;;;;5099915;28;20189;-92
2022/09/26 07:39:34;;;;;;;5.67;2.90;;;11.70;99.90;;;;;;5097523;28;20170;-93
2022/09/26 07:42:03;;;;;;;7.17;3.03;;;11.70;99.90;;;;;;5096850;28;20174;-93
2022/09/26 07:44:29;;;;;;;7.53;3.33;;;11.70;99.90;;;;;;5097623;28;20178;-92
2022/09/26 07:52:22;;;;;;;2.87;2.37;;;11.60;99.90;;;;;;5100933;22;20324;-76
2022/09/26 07:54:48;;;;;;;4.17;2.60;;;11.60;99.90;;;;;;5096364;28;20618;-76
2022/09/26 07:57:15;;;;;;;6.00;2.27;;;11.60;99.90;;;;;;5095968;28;20168;-76
2022/09/26 07:59:41;;;;;;;7.20;2.27;;;11.60;99.90;;;;;;5094473;28;20174;-76
2022/09/26 08:02:23;;;;;;;6.67;2.70;;;11.60;99.90;;;;;;5095578;28;20269;-76
2022/09/26 08:04:48;;;;;;;5.03;2.30;;;11.60;99.90;;;;;;5095745;28;20546;-76
2022/09/26 08:07:14;;;;;;;5.30;2.40;;;11.60;99.90;;;;;;5096498;28;20167;-76
2022/09/26 08:09:40;;;;;;;5.30;2.17;;;11.60;99.90;;;;;;5095635;28;20251;-75
2022/09/26 08:12:06;;;;;;;4.70;1.90;;;11.60;99.90;;;;;;5095396;28;20555;-76
2022/09/26 08:14:31;;;;;;;2.60;1.83;;;11.50;99.90;;;;;;5095385;28;20173;-76
2022/09/26 08:16:57;;;;;;;4.10;1.87;;;11.50;99.90;;;;;;5095422;28;20662;-76
2022/09/26 08:19:23;;;;;;;5.77;2.03;;;11.50;99.90;;;;;;5095338;28;20174;-76
2022/09/26 08:21:48;;;;;;;5.43;1.90;;;11.50;99.90;;;;;;5095310;28;20209;-76
2022/09/26 08:24:14;;;;;;;4.87;1.90;;;11.50;99.90;;;;;;5095267;28;20162;-77
2022/09/26 08:26:39;;;;;;;6.83;1.97;;;11.50;99.90;;;;;;5096011;28;20257;-75
2022/09/26 08:29:11;;;;;;;4.93;1.50;;;11.50;99.90;;;;;;5097154;28;20194;-76
2022/09/26 08:31:39;;;;;;;5.10;1.97;;;11.50;99.90;;;;;;5095752;28;20182;-77
2022/09/26 08:34:07;;;;;;;3.43;1.80;;;11.40;99.90;;;;;;5095561;28;20170;-76
2022/09/26 08:36:35;;;;;;;3.00;1.37;;;11.40;99.90;;;;;;5095231;28;20178;-76
2022/09/26 08:39:01;;;;;;;3.67;1.60;;;11.40;99.90;;;;;;5093735;28;20219;-76
2022/09/26 08:41:55;;;;;;;4.97;1.57;;;11.40;99.90;;;;;;5093803;28;20571;-76
2022/09/26 08:44:42;;;;;;;4.83;1.47;;;11.40;99.90;;;;;;5095460;28;20163;-77
2022/09/26 08:47:36;;;;;;;4.50;1.50;;;11.40;99.90;;;;;;5093540;28;20181;-76
2022/09/26 08:50:17;;;;;;;3.50;1.70;;;11.40;99.90;;;;;;5093575;28;20202;-76
2022/09/26 08:52:50;;;;;;;4.93;1.80;;;11.40;99.90;;;;;;5095154;28;20181;-76
2022/09/26 08:55:30;;;;;;;3.23;1.50;;;11.40;99.90;;;;;;5094715;28;20211;-75
2022/09/26 08:58:00;;;;;;;2.50;1.50;;;11.30;99.90;;;;;;5093297;28;20632;-76
2022/09/26 09:00:30;;;;;;;4.27;1.50;;;11.40;99.90;;;;;;5093623;28;20170;-76
2022/09/26 09:03:09;;;;;;;3.07;1.50;;;11.30;99.90;;;;;;5093307;28;20167;-77
2022/09/26 09:05:39;;;;;;;2.57;1.27;;;11.40;99.90;;;;;;5094962;28;20158;-77
2022/09/26 09:08:30;;;;;;;4.50;1.70;;;11.30;99.90;;;;;;5093334;28;20208;-76
2022/09/26 09:11:19;;;;;;;3.20;1.90;;;11.30;99.90;;;;;;5078793;28;20256;-77
2022/09/26 09:13:47;;;;;;;4.47;2.10;;;11.40;99.90;;;;;;5094123;28;20151;-76
2022/09/26 09:16:31;;;;;;;2.43;1.93;;;11.40;99.90;;;;;;5093178;28;20163;-76
2022/09/26 09:19:08;;;;;;;2.60;1.90;;;11.40;99.90;;;;;;5093115;28;20175;-76
2022/09/26 09:21:40;;;;;;;4.53;2.30;;;11.40;99.90;;;;;;5094324;28;20197;-76
2022/09/26 09:24:17;;;;;;;4.47;2.10;;;11.40;99.90;;;;;;5094132;28;20623;-77
2022/09/26 09:27:06;;;;;;;3.80;1.83;;;11.40;99.90;;;;;;5093994;28;20539;-76
2022/09/26 09:29:47;;;;;;;3.23;2.00;;;11.50;99.90;;;;;;5093016;28;20198;-76
2022/09/26 09:32:18;;;;;;;2.97;1.70;;;11.50;99.90;;;;;;5093858;28;20253;-77
2022/09/26 09:34:45;;;;;;;4.17;1.80;;;11.50;99.90;;;;;;5095195;28;20154;-76
2022/09/26 09:37:17;;;;;;;3.97;1.87;;;11.50;99.90;;;;;;5092558;28;20604;-77
2022/09/26 09:39:46;;;;;;;3.27;1.90;;;11.60;99.90;;;;;;5093921;28;20283;-77
2022/09/26 09:42:18;;;;;;;5.17;2.10;;;11.60;99.90;;;;;;5093974;28;20247;-77
2022/09/26 09:45:04;;;;;;;3.73;2.07;;;11.70;99.90;;;;;;5093951;28;20326;-77
2022/09/26 09:47:35;;;;;;;2.87;2.33;;;11.70;99.90;;;;;;5092482;28;20644;-77
2022/09/26 09:50:10;;;;;;;5.33;2.17;;;11.80;99.90;;;;;;5092388;28;20205;-76
2022/09/26 09:52:48;;;;;;;4.40;1.80;;;11.80;99.90;;;;;;5093761;28;20273;-77
2022/09/26 09:55:36;;;;;;;5.00;2.37;;;11.90;99.90;;;;;;5093937;28;20158;-77
2022/09/26 09:58:16;;;;;;;6.00;2.70;;;11.90;99.90;;;;;;5092105;28;20699;-76
2022/09/26 10:00:50;;;;;;;6.43;2.43;;;11.90;99.90;;;;;;5093656;28;20189;-76
2022/09/26 10:03:25;;;;;;;6.33;2.13;;;12.00;99.90;;;;;;5094020;28;20154;-77
2022/09/26 10:05:59;;;;;;;4.07;1.90;;;12.00;99.90;;;;;;5093545;28;20162;-77
2022/09/26 10:08:30;;;;;;;5.20;2.20;;;12.00;99.90;;;;;;5093626;28;20189;-77
2022/09/26 10:13:25;;;;;;;4.70;2.30;;;12.10;99.90;;;;;;5124231;22;20236;-95
2022/09/26 10:16:00;;;;;;;3.27;2.07;;;12.20;99.90;;;;;;5114547;27;20182;-95
2022/09/26 10:18:26;;;;;;;6.27;2.30;;;12.20;99.90;;;;;;5118056;27;20219;-95
2022/09/26 10:21:10;;;;;;;3.63;1.77;;;12.20;99.90;;;;;;5113161;27;20254;-95
2022/09/26 10:23:39;;;;;;;4.83;2.37;;;12.10;99.90;;;;;;5108265;27;20178;-95
2022/09/26 10:26:10;;;;;;;2.57;1.37;;;12.30;99.90;;;;;;5117700;27;20166;-95
2022/09/26 10:28:44;;;;;;;4.47;1.60;;;12.20;99.90;;;;;;5092009;22;20226;-76
2022/09/26 10:31:11;;;;;;;3.30;1.60;;;12.30;99.90;;;;;;5068660;28;20189;-78
2022/09/26 10:33:43;;;;;;;4.00;2.00;;;12.30;99.90;;;;;;5053606;28;20178;-77
2022/09/26 10:36:16;;;;;;;6.50;2.17;;;12.40;99.90;;;;;;5071114;28;20544;-77
2022/09/26 10:42:13;;;;;;;3.70;2.10;;;12.30;99.90;;;;;;5050248;28;20213;-77
2022/09/26 10:44:40;;;;;;;3.10;1.93;;;12.40;99.90;;;;;;5051370;28;20294;-77
2022/09/26 10:47:12;;;;;;;2.87;2.43;;;12.40;99.90;;;;;;5060571;28;20585;-76
2022/09/26 10:49:58;;;;;;;3.30;2.17;;;12.50;99.90;;;;;;5069536;28;20297;-76
2022/09/26 10:52:39;;;;;;;5.13;1.83;;;12.60;99.90;;;;;;5059599;28;20745;-77
2022/09/26 10:55:13;;;;;;;7.13;2.40;;;12.80;99.90;;;;;;5072784;28;20191;-76
2022/09/26 10:57:47;;;;;;;5.10;2.07;;;12.90;99.90;;;;;;5071179;28;20193;-78
2022/09/26 11:00:36;;;;;;;3.43;1.90;;;12.90;99.90;;;;;;5071648;28;20228;-78
2022/09/26 11:03:20;;;;;;;4.33;1.90;;;13.10;99.90;;;;;;5054768;28;20564;-78
2022/09/26 11:05:56;;;;;;;5.33;1.93;;;13.20;99.90;;;;;;5053851;28;20176;-77
2022/09/26 11:08:27;;;;;;;2.43;1.70;;;13.30;99.90;;;;;;5070593;28;20209;-77
2022/09/26 11:10:55;;;;;;;3.97;1.90;;;13.30;99.90;;;;;;5071288;28;20256;-77
2022/09/26 11:13:23;;;;;;;6.63;2.10;;;13.40;99.90;;;;;;5071374;28;20206;-78
2022/09/26 11:16:00;;;;;;;2.40;1.50;;;13.50;99.90;;;;;;5071259;28;20224;-77
2022/09/26 11:18:43;;;;;;;3.83;1.80;;;13.50;99.90;;;;;;5072480;28;20179;-77
2022/09/26 11:21:37;;;;;;;1.93;1.77;;;13.60;99.90;;;;;;5070123;28;20257;-78
2022/09/26 11:24:24;;;;;;;4.30;1.67;;;13.60;99.90;;;;;;5071507;28;20244;-77
2022/09/26 11:27:22;;;;;;;3.20;1.77;;;13.60;99.90;;;;;;5071637;28;20551;-77
2022/09/26 11:30:11;;;;;;;2.07;1.57;;;13.70;99.90;;;;;;5051499;28;20215;-77
2022/09/26 11:32:42;;;;;;;4.57;1.43;;;13.70;99.90;;;;;;5064080;28;20585;-78
2022/09/26 11:35:32;;;;;;;3.60;1.50;;;13.70;99.90;;;;;;5053802;28;20229;-78
2022/09/26 11:38:08;;;;;;;3.07;1.77;;;13.70;99.90;;;;;;5070234;28;20665;-78
2022/09/26 11:40:58;;;;;;;3.97;1.30;;;13.70;99.90;;;;;;5064257;28;20187;-77
2022/09/26 11:43:35;;;;;;;4.27;1.30;;;13.80;99.90;;;;;;5048954;28;20207;-79
2022/09/26 11:46:22;;;;;;;5.40;1.60;;;13.80;99.90;;;;;;5072350;28;20178;-77
2022/09/26 11:49:02;;;;;;;4.00;1.80;;;13.90;99.90;;;;;;5065686;28;20210;-76
2022/09/26 11:51:40;;;;;;;3.63;1.53;;;13.90;99.90;;;;;;5069144;28;20226;-78
2022/09/26 11:54:19;;;;;;;4.47;1.63;;;14.00;99.90;;;;;;5071048;28;20652;-78
2022/09/26 11:56:49;;;;;;;4.63;1.70;;;14.00;99.90;;;;;;5074617;28;20205;-78
2022/09/26 11:59:52;;;;;;;2.33;1.30;;;14.00;99.90;;;;;;5075212;28;20187;-78
2022/09/26 12:02:34;;;;;;;4.67;1.47;;;14.00;99.90;;;;;;5075077;28;20233;-77
2022/09/26 12:05:23;;;;;;;3.80;1.50;;;14.00;99.90;;;;;;5072292;28;20270;-78
2022/09/26 12:08:18;;;;;;;3.63;1.33;;;13.90;99.90;;;;;;5064935;28;20197;-77
2022/09/26 12:10:49;;;;;;;4.10;1.57;;;13.90;99.90;;;;;;5075702;28;20178;-76
2022/09/26 12:13:40;;;;;;;4.60;1.50;;;13.80;99.90;;;;;;5066235;28;20219;-78
2022/09/26 12:16:37;;;;;;;3.73;1.90;;;13.80;99.90;;;;;;5074255;28;20171;-78
2022/09/26 12:19:05;;;;;;;3.17;1.50;;;13.70;99.90;;;;;;5073773;28;20187;-77
2022/09/26 12:21:40;;;;;;;2.33;1.40;;;13.70;99.90;;;;;;5074317;28;20199;-78
2022/09/26 12:24:23;;;;;;;3.60;1.40;;;13.50;99.90;;;;;;5061489;28;20179;-77
2022/09/26 12:26:58;;;;;;;1.90;1.20;;;13.60;99.90;;;;;;5055439;28;20190;-78
2022/09/26 12:29:45;;;;;;;4.40;1.53;;;13.50;99.90;;;;;;5054773;28;20207;-78
2022/09/26 12:32:32;;;;;;;4.00;1.27;;;13.60;99.90;;;;;;5065360;28;20191;-78
2022/09/26 12:35:14;;;;;;;2.27;1.30;;;13.50;99.90;;;;;;5053887;28;20172;-77
2022/09/26 12:38:04;;;;;;;2.50;1.53;;;13.40;99.90;;;;;;5054804;28;20213;-77
2022/09/26 12:40:45;;;;;;;3.23;1.50;;;13.40;99.90;;;;;;5055397;28;20225;-78
2022/09/26 12:43:33;;;;;;;3.27;1.30;;;13.30;99.90;;;;;;5062132;28;20199;-78
2022/09/26 12:46:08;;;;;;;4.90;1.60;;;13.20;99.90;;;;;;5070670;28;20257;-78
2022/09/26 12:49:11;;;;;;;2.93;1.33;;;13.10;99.90;;;;;;5053863;28;20186;-78
2022/09/26 12:51:51;;;;;;;3.77;1.63;;;13.10;99.90;;;;;;5058909;28;20233;-78
2022/09/26 12:54:43;;;;;;;3.27;1.47;;;13.10;99.90;;;;;;5059679;28;20553;-78
2022/09/26 12:57:47;;;;;;;1.77;1.47;;;13.10;99.90;;;;;;5053329;28;20616;-77
2022/09/26 13:00:21;;;;;;;4.77;1.80;;;13.10;99.90;;;;;;5043603;28;20194;-77
2022/09/26 13:03:16;;;;;;;4.40;1.50;;;13.10;99.90;;;;;;5053268;28;20203;-77
2022/09/26 13:06:10;;;;;;;6.90;1.47;;;13.10;99.90;;;;;;5053426;28;20603;-76
2022/09/26 13:08:59;;;;;;;2.13;1.33;;;13.10;99.90;;;;;;5054538;28;20241;-77
2022/09/26 13:12:07;;;;;;;5.07;1.50;;;13.10;99.90;;;;;;5069571;28;20192;-77
2022/09/26 13:14:59;;;;;;;2.73;1.53;;;13.10;99.90;;;;;;5054537;28;20182;-77
2022/09/26 13:17:33;;;;;;;2.03;1.47;;;13.00;99.90;;;;;;5053074;28;20182;-77
2022/09/26 13:20:18;;;;;;;4.37;1.60;;;13.00;99.90;;;;;;5054423;28;20166;-77
2022/09/26 13:22:49;;;;;;;2.97;1.60;;;13.00;99.90;;;;;;5054165;28;20187;-77
2022/09/26 13:25:24;;;;;;;4.73;1.90;;;13.00;99.90;;;;;;5054921;28;20567;-77
2022/09/26 13:28:08;;;;;;;5.40;1.80;;;13.00;99.90;;;;;;5055810;28;20244;-77
2022/09/26 13:30:45;;;;;;;4.40;1.63;;;13.00;99.90;;;;;;5054534;28;20183;-77
2022/09/26 13:33:26;;;;;;;6.40;1.50;;;13.00;99.90;;;;;;5052559;28;20203;-77
2022/09/26 13:35:55;;;;;;;3.30;1.80;;;12.90;99.90;;;;;;5053929;28;20629;-77
2022/09/26 13:39:02;;;;;;;4.77;1.97;;;12.90;99.90;;;;;;5054440;28;20630;-79